Time;durP1;ratioP1;P1;durP2;ratioP2;P2;SDS_P1;SDS_P2;PMS_P1;PMS_P2;Temp;Humidity;BMP_temperature;BMP_pressure;BME280_temperature;BME280_humidity;BME280_pressure;Samples;Min_cycle;Max_cycle;Signal;HPM_P1;HPM_P2
2023/04/10 00:00:36;;;;;;;58.45;52.45;;;7.90;99.90;;;;;;5076640;28;20052;-71
2023/04/10 00:03:02;;;;;;;;;;;7.80;99.90;;;;;;5067901;28;20771;-72
2023/04/10 00:05:28;;;;;;;59.33;53.13;;;7.80;99.90;;;;;;5093485;27;19998;-71
2023/04/10 00:07:54;;;;;;;61.88;55.42;;;7.80;99.90;;;;;;5019433;28;20043;-72
2023/04/10 00:10:21;;;;;;;60.40;54.20;;;7.80;99.90;;;;;;5043183;28;20051;-72
2023/04/10 00:12:56;;;;;;;59.58;53.33;;;7.80;99.90;;;;;;5039306;28;20065;-72
2023/04/10 00:15:22;;;;;;;60.70;54.33;;;7.80;99.90;;;;;;5075289;28;20044;-72
2023/04/10 00:17:50;;;;;;;56.92;51.03;;;7.70;99.90;;;;;;5058013;28;20042;-72
2023/04/10 00:20:21;;;;;;;59.47;53.35;;;7.70;99.90;;;;;;5050728;28;20402;-72
2023/04/10 00:22:46;;;;;;;59.88;53.70;;;7.70;99.90;;;;;;5082427;28;20048;-72
2023/04/10 00:25:12;;;;;;;59.67;53.50;;;7.70;99.90;;;;;;5052293;28;20051;-72
2023/04/10 00:27:41;;;;;;;62.35;55.60;;;7.80;99.90;;;;;;5073826;28;20063;-71
2023/04/10 00:30:07;;;;;;;61.97;55.47;;;7.60;99.90;;;;;;5041823;28;20044;-71
2023/04/10 00:32:33;;;;;;;61.13;54.72;;;7.70;99.90;;;;;;5076126;28;20044;-71
2023/04/10 00:35:02;;;;;;;62.65;56.13;;;7.60;99.90;;;;;;5076380;28;20133;-71
2023/04/10 00:37:27;;;;;;;62.85;56.35;;;7.60;99.90;;;;;;5075032;28;20144;-70
2023/04/10 00:39:53;;;;;;;61.40;55.08;;;7.60;99.90;;;;;;5065519;28;20679;-71
2023/04/10 00:42:19;;;;;;;61.75;55.35;;;7.50;99.90;;;;;;5063167;28;20573;-71
2023/04/10 00:44:45;;;;;;;62.78;56.20;;;7.50;99.90;;;;;;5059681;28;20122;-71
2023/04/10 00:47:12;;;;;;;62.40;56.10;;;7.50;99.90;;;;;;5093742;28;20446;-71
2023/04/10 00:49:40;;;;;;;64.22;57.65;;;7.40;99.90;;;;;;5072774;28;20519;-71
2023/04/10 00:52:06;;;;;;;63.08;56.70;;;7.40;99.90;;;;;;5074799;28;20048;-71
2023/04/10 00:54:34;;;;;;;65.75;58.65;;;7.40;99.90;;;;;;5058062;28;20044;-71
2023/04/10 00:57:02;;;;;;;65.63;58.85;;;7.30;99.90;;;;;;5062390;28;20079;-71
2023/04/10 00:59:28;;;;;;;66.10;59.30;;;7.30;99.90;;;;;;5076648;28;20060;-71
2023/04/10 01:01:54;;;;;;;66.32;59.63;;;7.30;99.90;;;;;;5063364;28;20189;-71
2023/04/10 01:04:21;;;;;;;67.43;60.47;;;7.20;99.90;;;;;;5062618;28;20090;-71
2023/04/10 01:07:42;;;;;;;68.22;60.95;;;7.20;99.90;;;;;;5046117;28;20036;-71
2023/04/10 01:10:15;;;;;;;70.57;63.08;;;7.20;99.90;;;;;;5064190;28;20048;-71
2023/04/10 01:12:54;;;;;;;70.35;63.15;;;7.10;99.90;;;;;;5070185;28;20422;-71
2023/04/10 01:15:26;;;;;;;69.32;62.03;;;7.10;99.90;;;;;;5080962;28;20048;-71
2023/04/10 01:18:09;;;;;;;73.95;65.95;;;7.10;99.90;;;;;;5083529;28;20047;-71
2023/04/10 01:20:38;;;;;;;72.85;65.40;;;7.10;99.90;;;;;;5099079;27;20040;-71
2023/04/10 01:23:22;;;;;;;73.43;65.93;;;7.00;99.90;;;;;;5057595;28;20049;-71
2023/04/10 01:25:52;;;;;;;73.45;65.75;;;7.00;99.90;;;;;;5086016;28;20039;-71
2023/04/10 01:28:18;;;;;;;73.75;66.05;;;7.00;99.90;;;;;;5078586;28;20040;-71
2023/04/10 01:30:46;;;;;;;76.03;68.13;;;7.00;99.90;;;;;;5080948;28;20040;-71
2023/04/10 01:33:17;;;;;;;75.50;67.70;;;7.00;99.90;;;;;;5067525;28;20409;-71
2023/04/10 01:35:49;;;;;;;75.80;67.90;;;7.00;99.90;;;;;;5047928;28;20048;-71
2023/04/10 01:38:18;;;;;;;75.97;68.30;;;7.00;99.90;;;;;;5054189;28;20126;-71
2023/04/10 01:40:49;;;;;;;77.80;69.57;;;6.90;99.90;;;;;;5074319;28;20126;-72
2023/04/10 01:43:16;;;;;;;79.30;71.20;;;6.90;99.90;;;;;;5076229;28;20137;-72
2023/04/10 01:45:46;;;;;;;;;;;7.00;99.90;;;;;;5061332;28;20047;-73
2023/04/10 01:48:12;;;;;;;79.43;71.03;;;6.90;99.90;;;;;;5058110;28;20382;-72
2023/04/10 01:50:39;;;;;;;84.35;75.65;;;6.90;99.90;;;;;;5060414;28;20516;-72
2023/04/10 01:53:06;;;;;;;82.60;74.03;;;7.00;99.90;;;;;;5053257;28;20570;-72
2023/04/10 01:55:33;;;;;;;82.88;74.50;;;7.00;99.90;;;;;;5061559;28;20046;-72
2023/04/10 01:58:03;;;;;;;84.78;75.93;;;6.90;99.90;;;;;;5030189;28;20414;-72
2023/04/10 02:00:40;;;;;;;84.65;76.10;;;7.00;99.90;;;;;;5075876;27;20499;-72
2023/04/10 02:03:06;;;;;;;84.88;76.28;;;6.90;99.90;;;;;;5049255;28;20051;-72
2023/04/10 02:05:44;;;;;;;83.97;75.43;;;6.90;99.90;;;;;;5085722;28;20040;-72
2023/04/10 02:08:17;;;;;;;83.57;75.05;;;6.90;99.90;;;;;;5083021;28;20055;-72
2023/04/10 02:11:16;;;;;;;82.88;74.53;;;6.90;99.90;;;;;;5080719;28;20294;-72
2023/04/10 02:13:42;;;;;;;84.32;75.85;;;6.90;99.90;;;;;;5081934;28;20044;-73
2023/04/10 02:16:09;;;;;;;83.40;74.97;;;6.90;99.90;;;;;;5077305;28;20051;-72
2023/04/10 02:18:36;;;;;;;82.35;74.05;;;6.90;99.90;;;;;;5065883;28;20096;-72
2023/04/10 02:21:02;;;;;;;82.78;74.10;;;6.90;99.90;;;;;;5080118;28;20051;-72
2023/04/10 02:23:28;;;;;;;86.03;77.25;;;6.90;99.90;;;;;;5080980;28;20371;-72
2023/04/10 02:25:57;;;;;;;84.25;75.53;;;6.90;99.90;;;;;;5063806;28;20159;-72
2023/04/10 02:28:23;;;;;;;82.70;74.22;;;6.90;99.90;;;;;;5064716;28;20521;-72
2023/04/10 02:30:52;;;;;;;84.03;75.25;;;6.90;99.90;;;;;;5051478;28;20040;-72
2023/04/10 02:33:20;;;;;;;83.70;75.00;;;6.90;99.90;;;;;;5065389;28;20572;-72
2023/04/10 02:35:46;;;;;;;84.80;75.97;;;6.90;99.90;;;;;;5059620;28;20043;-72
2023/04/10 02:38:12;;;;;;;81.95;73.53;;;6.90;99.90;;;;;;5062443;28;20603;-72
2023/04/10 02:40:40;;;;;;;82.68;74.22;;;6.90;99.90;;;;;;5065052;28;20047;-72
2023/04/10 02:43:06;;;;;;;80.95;72.60;;;6.90;99.90;;;;;;5082187;28;20076;-72
2023/04/10 02:45:35;;;;;;;80.97;72.88;;;6.90;99.90;;;;;;5063429;28;20067;-72
2023/04/10 02:48:01;;;;;;;81.32;73.00;;;6.90;99.90;;;;;;5081510;28;20043;-72
2023/04/10 02:50:31;;;;;;;83.13;74.68;;;6.90;99.90;;;;;;5061392;28;20515;-72
2023/04/10 02:52:57;;;;;;;81.43;73.22;;;6.90;99.90;;;;;;5081840;28;20114;-70
2023/04/10 02:55:23;;;;;;;79.85;71.70;;;6.90;99.90;;;;;;5065575;28;20058;-71
2023/04/10 02:57:48;;;;;;;80.20;71.97;;;6.90;99.90;;;;;;5063287;28;20044;-71
2023/04/10 03:00:15;;;;;;;80.20;72.10;;;6.90;99.90;;;;;;5078107;28;20126;-70
2023/04/10 03:02:40;;;;;;;80.43;71.88;;;7.00;99.90;;;;;;5083230;28;20109;-69
2023/04/10 03:05:07;;;;;;;79.60;71.57;;;7.00;99.90;;;;;;5082170;28;20436;-70
2023/04/10 03:07:33;;;;;;;77.03;68.95;;;7.00;99.90;;;;;;5064676;28;20066;-70
2023/04/10 03:09:59;;;;;;;76.38;68.30;;;7.00;99.90;;;;;;5080617;28;20580;-70
2023/04/10 03:12:25;;;;;;;75.78;67.90;;;7.00;99.90;;;;;;5064877;28;20047;-70
2023/04/10 03:14:51;;;;;;;74.45;66.75;;;7.00;99.90;;;;;;5062399;28;20050;-70
2023/04/10 03:17:17;;;;;;;77.28;69.60;;;6.90;99.90;;;;;;5080851;28;20050;-71
2023/04/10 03:19:42;;;;;;;75.13;67.32;;;6.90;99.90;;;;;;5029152;28;20043;-72
2023/04/10 03:22:11;;;;;;;74.90;67.28;;;6.90;99.90;;;;;;5082723;28;20100;-71
2023/04/10 03:24:37;;;;;;;75.45;67.60;;;6.90;99.90;;;;;;5046445;28;20139;-72
2023/04/10 03:27:03;;;;;;;78.07;69.97;;;6.90;99.90;;;;;;5066248;28;20146;-71
2023/04/10 03:29:29;;;;;;;76.63;68.78;;;6.90;99.90;;;;;;5061773;28;20185;-71
2023/04/10 03:31:56;;;;;;;77.28;69.28;;;6.90;99.90;;;;;;5047269;28;20736;-71
2023/04/10 03:34:21;;;;;;;78.85;70.65;;;6.80;99.90;;;;;;5080436;28;20130;-72
2023/04/10 03:36:47;;;;;;;74.80;67.20;;;6.80;99.90;;;;;;5082381;28;20046;-72
2023/04/10 03:39:13;;;;;;;75.20;67.60;;;6.80;99.90;;;;;;5062455;28;20055;-71
2023/04/10 03:41:39;;;;;;;77.32;69.32;;;6.80;99.90;;;;;;5062452;28;20453;-72
2023/04/10 03:44:04;;;;;;;76.57;68.75;;;6.80;99.90;;;;;;5028280;28;21356;-72
2023/04/10 03:46:30;;;;;;;76.53;68.68;;;6.90;99.90;;;;;;5065893;28;20032;-71
2023/04/10 03:48:56;;;;;;;79.22;71.07;;;6.80;99.90;;;;;;5046053;28;20052;-72
2023/04/10 03:51:23;;;;;;;78.40;70.30;;;6.80;99.90;;;;;;5065215;28;20131;-71
2023/04/10 03:53:50;;;;;;;77.05;69.15;;;6.80;99.90;;;;;;5065050;28;20461;-72
2023/04/10 03:56:19;;;;;;;76.43;68.75;;;6.70;99.90;;;;;;5082766;28;20510;-72
2023/04/10 03:58:44;;;;;;;78.05;70.13;;;6.80;99.90;;;;;;5079967;28;20513;-72
2023/04/10 04:01:10;;;;;;;77.07;69.30;;;6.70;99.90;;;;;;5042385;28;20035;-72
2023/04/10 04:03:36;;;;;;;79.47;71.30;;;6.70;99.90;;;;;;5053653;28;20795;-72
2023/04/10 04:06:02;;;;;;;78.15;70.20;;;6.70;99.90;;;;;;5026701;28;20079;-72
2023/04/10 04:08:27;;;;;;;78.20;70.30;;;6.80;99.90;;;;;;5064196;28;20063;-72
2023/04/10 04:10:53;;;;;;;78.03;70.05;;;6.80;99.90;;;;;;5060541;28;20134;-72
2023/04/10 04:13:19;;;;;;;76.95;69.22;;;6.80;99.90;;;;;;5064256;28;20541;-73
2023/04/10 04:15:46;;;;;;;75.05;67.20;;;6.90;99.90;;;;;;5046680;28;20035;-72
2023/04/10 04:18:12;;;;;;;77.75;70.07;;;6.90;99.90;;;;;;5064783;28;20438;-73
2023/04/10 04:20:38;;;;;;;76.13;68.55;;;6.90;99.90;;;;;;5059658;28;20036;-72
2023/04/10 04:23:04;;;;;;;75.10;67.43;;;6.90;99.90;;;;;;5076226;28;20056;-72
2023/04/10 04:25:32;;;;;;;78.78;70.60;;;7.00;99.90;;;;;;5061751;28;20443;-72
2023/04/10 04:27:58;;;;;;;75.45;67.82;;;7.00;99.90;;;;;;5047358;28;20643;-72
2023/04/10 04:30:24;;;;;;;76.05;68.43;;;7.00;99.90;;;;;;5078990;28;20048;-72
2023/04/10 04:32:50;;;;;;;75.05;67.40;;;7.00;99.90;;;;;;5047943;28;20047;-72
2023/04/10 04:35:16;;;;;;;76.10;68.47;;;7.10;99.90;;;;;;5063035;28;20616;-72
2023/04/10 04:37:45;;;;;;;76.50;68.72;;;7.00;99.90;;;;;;5077434;28;20664;-72
2023/04/10 04:40:11;;;;;;;75.97;67.97;;;7.00;99.90;;;;;;5062308;28;20699;-72
2023/04/10 04:42:36;;;;;;;75.40;67.78;;;7.10;99.90;;;;;;5062320;28;20051;-72
2023/04/10 04:45:03;;;;;;;73.53;66.03;;;7.00;99.90;;;;;;5061406;28;20055;-72
2023/04/10 04:47:28;;;;;;;75.40;67.75;;;7.10;99.90;;;;;;5074359;28;20086;-72
2023/04/10 04:49:54;;;;;;;73.18;65.72;;;7.10;99.90;;;;;;5044448;28;20067;-72
2023/04/10 04:52:20;;;;;;;72.00;64.55;;;7.10;99.90;;;;;;5062575;28;20048;-72
2023/04/10 04:54:46;;;;;;;74.20;66.60;;;7.10;99.90;;;;;;5062419;28;20092;-72
2023/04/10 04:57:11;;;;;;;73.97;66.20;;;7.10;99.90;;;;;;5063215;28;20108;-72
2023/04/10 04:59:37;;;;;;;70.63;63.10;;;7.10;99.90;;;;;;5061370;28;20048;-71
2023/04/10 05:02:03;;;;;;;72.13;64.63;;;7.10;99.90;;;;;;5079180;28;20139;-72
2023/04/10 05:04:32;;;;;;;69.55;62.25;;;7.20;99.90;;;;;;5031739;28;20078;-72
2023/04/10 05:06:57;;;;;;;71.63;64.32;;;7.20;99.90;;;;;;5081400;28;20496;-71
2023/04/10 05:09:23;;;;;;;70.07;62.92;;;7.20;99.90;;;;;;5081964;28;20051;-72
2023/04/10 05:11:50;;;;;;;72.65;65.30;;;7.20;99.90;;;;;;5065682;28;20645;-72
2023/04/10 05:14:16;;;;;;;69.07;61.95;;;7.20;99.90;;;;;;5070206;28;20864;-72
2023/04/10 05:16:41;;;;;;;70.07;62.90;;;7.20;99.90;;;;;;5079233;28;21246;-72
2023/04/10 05:19:07;;;;;;;69.93;62.58;;;7.30;99.90;;;;;;5051289;28;20086;-71
2023/04/10 05:21:36;;;;;;;70.75;63.42;;;7.30;99.90;;;;;;5047040;28;20861;-72
2023/04/10 05:24:02;;;;;;;68.88;61.65;;;7.30;99.90;;;;;;5047959;28;20861;-72
2023/04/10 05:26:28;;;;;;;69.90;62.65;;;7.30;99.90;;;;;;5079772;28;20054;-72
2023/04/10 05:28:54;;;;;;;68.43;61.45;;;7.30;99.90;;;;;;5032008;28;20636;-71
2023/04/10 05:31:20;;;;;;;68.80;61.50;;;7.40;99.90;;;;;;5065101;28;20052;-72
2023/04/10 05:33:45;;;;;;;66.93;60.03;;;7.40;99.90;;;;;;5062706;28;20068;-72
2023/04/10 05:36:11;;;;;;;67.60;60.40;;;7.40;99.90;;;;;;5065601;28;20079;-72
2023/04/10 05:38:37;;;;;;;65.47;58.75;;;7.40;99.90;;;;;;5081110;28;20040;-72
2023/04/10 05:41:03;;;;;;;65.30;58.55;;;7.40;99.90;;;;;;5064783;28;20048;-72
2023/04/10 05:43:29;;;;;;;66.07;59.17;;;7.40;99.90;;;;;;5078216;28;20586;-72
2023/04/10 05:45:55;;;;;;;66.22;59.28;;;7.50;99.90;;;;;;5095356;27;20055;-72
2023/04/10 05:48:25;;;;;;;65.32;58.60;;;7.50;99.90;;;;;;5063417;28;21096;-71
2023/04/10 05:50:51;;;;;;;64.65;58.00;;;7.50;99.90;;;;;;5079851;28;20048;-72
2023/04/10 05:53:19;;;;;;;66.78;59.88;;;7.50;99.90;;;;;;5078237;28;20188;-72
2023/04/10 05:55:50;;;;;;;65.13;58.25;;;7.50;99.90;;;;;;5077776;28;21254;-71
2023/04/10 05:58:16;;;;;;;63.15;56.38;;;7.60;99.90;;;;;;5078540;28;20079;-71
2023/04/10 06:00:41;;;;;;;66.43;59.63;;;7.60;99.90;;;;;;5044560;28;20174;-71
2023/04/10 06:03:08;;;;;;;64.70;58.10;;;7.60;99.90;;;;;;5061794;28;20044;-71
2023/04/10 06:05:34;;;;;;;66.65;59.85;;;7.60;99.90;;;;;;5079742;28;20054;-71
2023/04/10 06:08:00;;;;;;;64.60;57.95;;;7.60;99.90;;;;;;5079739;28;20593;-71
2023/04/10 06:10:29;;;;;;;66.82;59.95;;;7.70;99.90;;;;;;5063308;28;20079;-71
2023/04/10 06:12:55;;;;;;;65.47;58.75;;;7.70;99.90;;;;;;5060690;28;20699;-71
2023/04/10 06:15:21;;;;;;;66.75;59.75;;;7.80;99.90;;;;;;5081350;28;20059;-71
2023/04/10 06:17:47;;;;;;;66.35;59.47;;;7.80;99.90;;;;;;5062490;28;20046;-71
2023/04/10 06:20:13;;;;;;;63.70;57.08;;;7.90;99.90;;;;;;5045812;28;20069;-71
2023/04/10 06:22:38;;;;;;;64.82;58.20;;;7.90;99.90;;;;;;5062081;28;20508;-71
2023/04/10 06:25:05;;;;;;;63.55;57.05;;;8.00;99.90;;;;;;5077279;27;20032;-71
2023/04/10 06:27:32;;;;;;;63.55;56.75;;;8.00;99.90;;;;;;5062471;28;20050;-71
2023/04/10 06:29:58;;;;;;;61.50;55.17;;;8.10;99.90;;;;;;5062616;28;20061;-71
2023/04/10 06:32:24;;;;;;;63.85;57.28;;;8.10;99.90;;;;;;5066191;28;20612;-71
2023/04/10 06:34:50;;;;;;;61.72;55.17;;;8.20;99.90;;;;;;5064786;28;20726;-71
2023/04/10 06:37:15;;;;;;;61.65;55.40;;;8.20;99.90;;;;;;5080839;28;20072;-71
2023/04/10 06:39:41;;;;;;;60.58;54.22;;;8.30;99.90;;;;;;5060016;28;20038;-72
2023/04/10 06:42:07;;;;;;;61.33;54.97;;;8.30;99.90;;;;;;5046689;28;20083;-71
2023/04/10 06:44:33;;;;;;;61.13;54.85;;;8.40;99.90;;;;;;5065733;28;20044;-72
2023/04/10 06:47:02;;;;;;;60.40;54.13;;;8.40;99.90;;;;;;5047877;28;20128;-71
2023/04/10 06:49:27;;;;;;;59.90;53.78;;;8.50;99.90;;;;;;5067620;28;20051;-71
2023/04/10 06:51:53;;;;;;;57.88;51.92;;;8.50;99.90;;;;;;5048190;28;20050;-72
2023/04/10 06:54:19;;;;;;;58.83;52.75;;;8.60;99.90;;;;;;5063446;28;20711;-71
2023/04/10 06:56:45;;;;;;;59.83;53.67;;;8.60;99.90;;;;;;5060497;28;20036;-71
2023/04/10 06:59:11;;;;;;;59.30;52.88;;;8.70;99.90;;;;;;5082839;28;20414;-71
2023/04/10 07:01:36;;;;;;;60.10;53.83;;;8.70;99.90;;;;;;5048593;28;20114;-71
2023/04/10 07:04:02;;;;;;;57.63;51.60;;;8.80;99.90;;;;;;5046392;28;20067;-72
2023/04/10 07:06:28;;;;;;;60.22;54.05;;;8.80;99.90;;;;;;5082728;28;20051;-72
2023/04/10 07:08:54;;;;;;;58.78;52.63;;;8.80;99.90;;;;;;5044792;28;20116;-72
2023/04/10 07:11:19;;;;;;;57.75;51.60;;;8.80;99.90;;;;;;5063532;28;20973;-71
2023/04/10 07:13:45;;;;;;;57.28;51.38;;;8.90;99.90;;;;;;5044910;28;20568;-71
2023/04/10 07:16:11;;;;;;;53.80;48.15;;;9.00;99.90;;;;;;5064828;28;20062;-71
2023/04/10 07:18:37;;;;;;;54.75;49.15;;;9.10;99.90;;;;;;5064155;28;20052;-70
2023/04/10 07:21:13;;;;;;;54.17;48.63;;;9.20;99.90;;;;;;5060215;28;20072;-71
2023/04/10 07:23:39;;;;;;;52.78;47.13;;;9.30;99.90;;;;;;5078056;28;20063;-71
2023/04/10 07:26:05;;;;;;;54.55;49.08;;;9.40;99.90;;;;;;5045958;28;20485;-71
2023/04/10 07:28:32;;;;;;;54.88;49.35;;;9.50;99.90;;;;;;5060236;28;20204;-71
2023/04/10 07:30:58;;;;;;;53.92;48.33;;;9.50;99.90;;;;;;5058733;28;20565;-70
2023/04/10 07:33:23;;;;;;;52.20;46.85;;;9.70;99.90;;;;;;5076080;28;20498;-70
2023/04/10 07:35:50;;;;;;;51.78;46.28;;;9.80;99.90;;;;;;5075261;28;20062;-70
2023/04/10 07:38:17;;;;;;;52.13;46.83;;;9.90;99.90;;;;;;5060990;28;20074;-70
2023/04/10 07:40:45;;;;;;;51.60;46.30;;;10.10;99.90;;;;;;5059114;28;20047;-70
2023/04/10 07:43:11;;;;;;;50.35;45.22;;;10.20;99.90;;;;;;5075234;28;20072;-70
2023/04/10 07:45:37;;;;;;;51.13;45.85;;;10.30;99.90;;;;;;5073187;28;20044;-72
2023/04/10 07:48:05;;;;;;;48.88;43.90;;;10.50;99.90;;;;;;5058328;28;20043;-72
2023/04/10 07:50:30;;;;;;;48.03;43.10;;;10.60;99.90;;;;;;5074530;28;20048;-71
2023/04/10 07:52:56;;;;;;;47.85;42.83;;;10.80;99.90;;;;;;5078461;28;20039;-71
2023/04/10 07:55:22;;;;;;;47.72;42.72;;;10.90;99.90;;;;;;5073361;28;20321;-71
2023/04/10 07:57:48;;;;;;;47.58;42.55;;;11.20;99.90;;;;;;5079187;28;20066;-71
2023/04/10 08:00:15;;;;;;;45.38;40.58;;;11.40;99.90;;;;;;5044537;28;20071;-71
2023/04/10 08:02:41;;;;;;;44.10;39.75;;;11.60;99.90;;;;;;5076456;28;20435;-72
2023/04/10 08:05:08;;;;;;;40.15;36.08;;;11.80;99.90;;;;;;5062027;28;20045;-71
2023/04/10 08:07:35;;;;;;;40.80;36.55;;;11.90;99.30;;;;;;5028002;28;20055;-71
2023/04/10 08:10:01;;;;;;;39.95;35.83;;;12.10;98.70;;;;;;5058718;28;20048;-71
2023/04/10 08:12:27;;;;;;;37.63;33.72;;;12.30;98.10;;;;;;5058304;28;20051;-71
2023/04/10 08:14:53;;;;;;;35.38;31.83;;;12.40;97.30;;;;;;5078703;28;20046;-71
2023/04/10 08:17:19;;;;;;;35.97;32.35;;;12.60;96.40;;;;;;5058993;28;20101;-71
2023/04/10 08:19:45;;;;;;;34.78;31.25;;;12.60;94.50;;;;;;5026077;28;20463;-72
2023/04/10 08:22:10;;;;;;;31.48;28.25;;;12.60;94.10;;;;;;5076926;28;20057;-71
2023/04/10 08:24:36;;;;;;;29.75;26.67;;;12.70;92.70;;;;;;5077225;28;20083;-71
2023/04/10 08:27:02;;;;;;;27.80;24.90;;;12.80;93.00;;;;;;5077542;28;20327;-72
2023/04/10 08:29:28;;;;;;;27.80;25.02;;;12.80;91.60;;;;;;5060499;28;20091;-71
2023/04/10 08:31:55;;;;;;;25.88;23.20;;;12.80;91.20;;;;;;5075549;28;20043;-72
2023/04/10 08:34:23;;;;;;;24.60;22.10;;;12.90;90.10;;;;;;5046672;28;20048;-72
2023/04/10 08:36:48;;;;;;;25.33;22.80;;;13.00;89.20;;;;;;5040789;28;20028;-72
2023/04/10 08:39:14;;;;;;;24.92;22.42;;;13.00;88.10;;;;;;5069091;28;20274;-72
2023/04/10 08:41:40;;;;;;;25.17;22.58;;;13.00;87.90;;;;;;5058949;28;20490;-72
2023/04/10 08:44:06;;;;;;;24.02;21.73;;;13.10;88.20;;;;;;5060984;28;20356;-72
2023/04/10 08:46:35;;;;;;;24.75;22.30;;;13.30;86.90;;;;;;5064086;28;20039;-72
2023/04/10 08:49:03;;;;;;;24.13;21.63;;;13.40;85.80;;;;;;5059513;28;20517;-72
2023/04/10 08:51:42;;;;;;;25.33;22.75;;;13.50;85.80;;;;;;5097432;27;20047;-71
2023/04/10 08:54:14;;;;;;;23.17;20.88;;;13.50;84.70;;;;;;5076462;28;20539;-71
2023/04/10 08:56:45;;;;;;;23.55;21.13;;;13.60;86.40;;;;;;5096593;27;20112;-71
2023/04/10 08:59:11;;;;;;;21.73;19.63;;;13.70;86.80;;;;;;5061831;28;20058;-72
2023/04/10 09:01:39;;;;;;;21.90;19.80;;;13.90;84.50;;;;;;5032267;28;20043;-71
2023/04/10 09:04:05;;;;;;;22.05;19.85;;;14.00;83.10;;;;;;5078921;28;20136;-71
2023/04/10 09:06:31;;;;;;;21.35;19.25;;;14.10;83.40;;;;;;5059652;28;20044;-71
2023/04/10 09:08:58;;;;;;;21.67;19.58;;;14.20;82.90;;;;;;5045780;28;20084;-71
2023/04/10 09:11:50;;;;;;;19.42;17.50;;;14.20;82.10;;;;;;5063817;28;20433;-71
2023/04/10 09:14:20;;;;;;;19.42;17.52;;;14.30;81.30;;;;;;5063289;28;20083;-71
2023/04/10 09:16:46;;;;;;;;;;;14.50;79.50;;;;;;5064428;28;20075;-71
2023/04/10 09:19:12;;;;;;;18.80;17.00;;;14.50;79.70;;;;;;5078667;28;20366;-72
2023/04/10 09:21:38;;;;;;;18.88;16.98;;;14.50;79.40;;;;;;5081898;28;20039;-72
2023/04/10 09:24:04;;;;;;;18.25;16.45;;;14.70;79.00;;;;;;5080309;28;20134;-72
2023/04/10 09:26:32;;;;;;;17.92;16.02;;;14.70;78.00;;;;;;5064536;28;20503;-72
2023/04/10 09:29:04;;;;;;;18.20;16.40;;;14.70;78.40;;;;;;5080382;28;20036;-72
2023/04/10 09:31:38;;;;;;;18.30;16.50;;;14.70;76.30;;;;;;5079199;28;20546;-72
2023/04/10 09:34:21;;;;;;;18.15;16.25;;;14.70;77.90;;;;;;5063041;28;20047;-72
2023/04/10 09:36:58;;;;;;;18.42;16.40;;;14.80;75.70;;;;;;5060339;28;20171;-72
2023/04/10 09:39:35;;;;;;;17.55;15.75;;;14.80;75.00;;;;;;5067863;28;20173;-72
2023/04/10 09:42:01;;;;;;;16.95;15.32;;;14.70;75.00;;;;;;5077959;28;20120;-72
2023/04/10 09:44:30;;;;;;;16.52;14.90;;;14.60;73.50;;;;;;5066826;28;20055;-72
2023/04/10 09:47:16;;;;;;;16.65;15.05;;;14.70;75.20;;;;;;5065116;28;20521;-72
2023/04/10 09:49:59;;;;;;;15.68;14.07;;;14.70;75.00;;;;;;5066054;28;20513;-71
2023/04/10 09:52:37;;;;;;;16.08;14.57;;;14.80;74.30;;;;;;5079180;28;20055;-72
2023/04/10 09:55:07;;;;;;;18.17;15.82;;;14.80;74.10;;;;;;5064385;28;20522;-73
2023/04/10 09:57:34;;;;;;;17.40;15.80;;;14.80;73.20;;;;;;5082480;28;20494;-71
2023/04/10 10:00:07;;;;;;;17.15;15.45;;;14.80;73.50;;;;;;5097664;27;20035;-71
2023/04/10 10:02:39;;;;;;;15.93;14.32;;;14.80;73.80;;;;;;5080343;28;20066;-71
2023/04/10 10:05:06;;;;;;;15.60;14.10;;;14.90;75.00;;;;;;5064861;28;20056;-72
2023/04/10 10:07:32;;;;;;;16.10;14.50;;;15.00;75.70;;;;;;5064475;28;20047;-72
2023/04/10 10:10:01;;;;;;;15.48;13.88;;;15.20;74.20;;;;;;5081620;28;20044;-72
2023/04/10 10:12:49;;;;;;;15.95;14.43;;;15.30;74.90;;;;;;5084203;28;20036;-71
2023/04/10 10:15:39;;;;;;;14.80;13.23;;;15.50;71.90;;;;;;5063084;28;20094;-71
2023/04/10 10:18:05;;;;;;;13.30;12.00;;;15.50;72.10;;;;;;5081839;28;20383;-72
2023/04/10 10:20:33;;;;;;;13.73;12.43;;;15.50;71.30;;;;;;5079100;28;20085;-71
2023/04/10 10:23:02;;;;;;;13.50;12.23;;;15.60;71.30;;;;;;5095928;27;20050;-72
2023/04/10 10:25:30;;;;;;;13.07;11.77;;;15.60;70.80;;;;;;5055595;28;20048;-72
2023/04/10 10:27:59;;;;;;;11.93;10.73;;;15.60;71.30;;;;;;5061569;28;20048;-72
2023/04/10 10:30:25;;;;;;;12.00;10.80;;;15.60;72.10;;;;;;5062612;28;20048;-72
2023/04/10 10:32:51;;;;;;;11.93;10.75;;;15.70;72.40;;;;;;5047319;28;20220;-72
2023/04/10 10:35:18;;;;;;;11.43;10.32;;;15.80;72.60;;;;;;5062397;28;20040;-72
2023/04/10 10:37:44;;;;;;;11.88;10.68;;;15.90;72.40;;;;;;5060923;28;20039;-71
2023/04/10 10:40:25;;;;;;;12.23;11.00;;;15.80;69.90;;;;;;5097578;27;20043;-71
2023/04/10 10:43:23;;;;;;;11.23;10.07;;;15.60;70.30;;;;;;5063400;28;20806;-72
2023/04/10 10:45:49;;;;;;;10.60;9.50;;;15.40;69.30;;;;;;5059933;28;20031;-72
2023/04/10 10:48:14;;;;;;;11.15;10.05;;;15.30;70.60;;;;;;5079342;28;20066;-71
2023/04/10 10:50:58;;;;;;;10.80;9.70;;;15.30;70.10;;;;;;5064341;28;20048;-71
2023/04/10 10:53:43;;;;;;;11.15;10.05;;;15.20;71.00;;;;;;5079390;28;20105;-71
2023/04/10 10:56:18;;;;;;;10.65;9.55;;;15.20;71.00;;;;;;5073037;28;20047;-73
2023/04/10 10:58:54;;;;;;;9.40;8.50;;;15.20;72.90;;;;;;5061447;28;20044;-73
2023/04/10 11:01:21;;;;;;;9.77;8.77;;;15.30;71.50;;;;;;5072450;28;20677;-72
2023/04/10 11:03:47;;;;;;;9.20;8.30;;;15.40;71.20;;;;;;5046900;28;21701;-73
2023/04/10 11:06:18;;;;;;;9.35;8.45;;;15.40;69.80;;;;;;5059121;28;20130;-73
2023/04/10 11:08:46;;;;;;;10.27;9.10;;;15.40;69.10;;;;;;5093393;27;20131;-72
2023/04/10 11:11:18;;;;;;;9.57;8.65;;;15.40;69.80;;;;;;5052877;28;20526;-73
2023/04/10 11:13:56;;;;;;;9.95;8.50;;;15.40;69.90;;;;;;5073832;28;20094;-74
2023/04/10 11:16:33;;;;;;;9.75;8.15;;;15.40;69.50;;;;;;5059123;28;20086;-74
2023/04/10 11:19:03;;;;;;;8.75;7.82;;;15.40;71.20;;;;;;5074802;28;20039;-73
2023/04/10 11:21:33;;;;;;;8.57;7.78;;;15.50;69.40;;;;;;5059300;28;20079;-73
2023/04/10 11:23:59;;;;;;;8.98;8.07;;;15.50;71.00;;;;;;5080109;28;20575;-74
2023/04/10 11:26:38;;;;;;;8.68;7.80;;;15.70;70.30;;;;;;5061427;28;20062;-74
2023/04/10 11:29:19;;;;;;;8.20;7.35;;;15.70;69.30;;;;;;5057908;28;20157;-74
2023/04/10 11:31:46;;;;;;;8.68;7.35;;;15.70;69.90;;;;;;5079084;28;20044;-73
2023/04/10 11:34:14;;;;;;;9.07;7.60;;;15.70;70.80;;;;;;5076980;28;20046;-73
2023/04/10 11:36:43;;;;;;;8.05;7.03;;;15.70;70.90;;;;;;5056807;28;20044;-74
2023/04/10 11:39:19;;;;;;;8.15;7.00;;;15.80;70.30;;;;;;5056337;28;20123;-74
2023/04/10 11:41:51;;;;;;;7.72;6.43;;;15.80;70.10;;;;;;5059018;28;20040;-73
2023/04/10 11:44:38;;;;;;;7.75;6.35;;;15.80;68.80;;;;;;5054986;28;20122;-73
2023/04/10 11:47:04;;;;;;;8.13;6.55;;;15.80;67.30;;;;;;5076079;28;20051;-74
2023/04/10 11:49:31;;;;;;;6.70;6.00;;;15.70;67.60;;;;;;5074885;28;20047;-74
2023/04/10 11:51:57;;;;;;;7.53;6.15;;;15.70;68.40;;;;;;5048489;28;20529;-73
2023/04/10 11:54:28;;;;;;;7.80;6.35;;;15.70;67.90;;;;;;5042156;28;20094;-73
2023/04/10 11:57:07;;;;;;;7.40;6.15;;;15.70;67.60;;;;;;5090744;27;20134;-71
2023/04/10 11:59:33;;;;;;;7.45;6.47;;;15.70;69.70;;;;;;5074975;28;20078;-71
2023/04/10 12:02:13;;;;;;;8.95;6.53;;;15.90;70.10;;;;;;5056282;28;20047;-73
2023/04/10 12:04:43;;;;;;;8.00;6.47;;;16.00;70.70;;;;;;5063696;28;21234;-73
2023/04/10 12:07:09;;;;;;;7.32;6.30;;;16.20;68.80;;;;;;5080137;27;20540;-73
2023/04/10 12:09:35;;;;;;;6.55;5.85;;;16.30;68.60;;;;;;5060302;28;20104;-73
2023/04/10 12:12:03;;;;;;;7.20;6.10;;;16.30;67.00;;;;;;5041605;28;20040;-73
2023/04/10 12:14:35;;;;;;;7.22;5.68;;;16.40;67.40;;;;;;5044624;28;20392;-73
2023/04/10 12:17:02;;;;;;;7.85;6.38;;;16.40;67.00;;;;;;5059539;28;20048;-73
2023/04/10 12:19:28;;;;;;;7.60;6.15;;;16.40;67.70;;;;;;5073299;28;20056;-73
2023/04/10 12:21:56;;;;;;;7.72;6.47;;;16.50;68.60;;;;;;5054320;28;20931;-73
2023/04/10 12:24:41;;;;;;;8.48;6.63;;;16.60;68.40;;;;;;5077632;28;20375;-73
2023/04/10 12:27:28;;;;;;;7.60;6.65;;;16.80;67.90;;;;;;5055671;28;20052;-72
2023/04/10 12:29:56;;;;;;;8.02;6.43;;;16.90;67.70;;;;;;5058328;28;20063;-71
2023/04/10 12:32:24;;;;;;;7.28;6.15;;;16.90;66.70;;;;;;5061170;28;20036;-72
2023/04/10 12:35:00;;;;;;;7.85;6.85;;;16.90;67.00;;;;;;5059507;28;20052;-72
2023/04/10 12:37:49;;;;;;;8.45;7.15;;;16.90;67.20;;;;;;5058201;28;20093;-72
2023/04/10 12:40:16;;;;;;;6.30;5.70;;;16.70;67.40;;;;;;5077623;28;20517;-73
2023/04/10 12:42:42;;;;;;;8.65;6.93;;;16.60;68.00;;;;;;5060483;28;20056;-73